Time;durP1;ratioP1;P1;durP2;ratioP2;P2;SDS_P1;SDS_P2;PMS_P1;PMS_P2;Temp;Humidity;BMP_temperature;BMP_pressure;BME280_temperature;BME280_humidity;BME280_pressure;Samples;Min_cycle;Max_cycle;Signal;HPM_P1;HPM_P2
2021/09/23 00:00:05;;;;;;;;;3510.20;3510.20;;;;;;;;6320969;22;9512;-80
2021/09/23 00:05:09;;;;;;;;;3523.80;3523.80;;;;;;;;6321014;22;8721;-80
2021/09/23 00:07:34;;;;;;;;;3505.50;3505.50;;;;;;;;6321386;22;8739;-80
2021/09/23 00:10:00;;;;;;;;;3518.75;3518.75;;;;;;;;6321414;22;11571;-80
2021/09/23 00:12:26;;;;;;;;;3516.75;3516.75;;;;;;;;6321106;22;8787;-81
2021/09/23 00:14:51;;;;;;;;;3523.80;3523.80;;;;;;;;6321251;22;8755;-80
2021/09/23 00:17:17;;;;;;;;;3531.75;3531.75;;;;;;;;6321464;22;8847;-80
2021/09/23 00:19:42;;;;;;;;;3547.00;3547.00;;;;;;;;6293137;22;8775;-80
2021/09/23 00:22:07;;;;;;;;;3552.00;3552.00;;;;;;;;6321467;22;8760;-80
2021/09/23 00:24:32;;;;;;;;;3563.00;3563.00;;;;;;;;6321338;22;8740;-80
2021/09/23 00:26:58;;;;;;;;;3556.00;3556.00;;;;;;;;6321317;22;8767;-80
2021/09/23 00:29:24;;;;;;;;;3555.50;3555.50;;;;;;;;6320681;22;8790;-80
2021/09/23 00:31:49;;;;;;;;;3549.33;3549.33;;;;;;;;6321086;22;8786;-80
2021/09/23 00:34:14;;;;;;;;;3554.67;3554.67;;;;;;;;6292935;22;8749;-80
2021/09/23 00:36:40;;;;;;;;;3527.75;3527.75;;;;;;;;6321174;22;8756;-81
2021/09/23 00:39:05;;;;;;;;;3509.25;3509.25;;;;;;;;6321170;22;8748;-81
2021/09/23 00:41:30;;;;;;;;;3509.25;3509.25;;;;;;;;6321982;22;8783;-81
2021/09/23 00:43:56;;;;;;;;;3511.25;3511.25;;;;;;;;6293812;22;9242;-80
2021/09/23 00:46:21;;;;;;;;;3564.67;3564.67;;;;;;;;6322047;22;8740;-81
2021/09/23 00:48:50;;;;;;;;;3515.25;3515.25;;;;;;;;6322424;22;9502;-81
2021/09/23 00:51:17;;;;;;;;;3531.40;3531.40;;;;;;;;6322187;22;8752;-81
2021/09/23 00:53:43;;;;;;;;;3555.50;3555.50;;;;;;;;6294529;22;8863;-81
2021/09/23 00:56:08;;;;;;;;;3524.00;3524.00;;;;;;;;6322288;22;8746;-81
2021/09/23 00:58:33;;;;;;;;;3556.67;3556.67;;;;;;;;6293680;22;8928;-81
2021/09/23 01:00:59;;;;;;;;;3569.33;3569.33;;;;;;;;6321611;22;8753;-80
2021/09/23 01:03:24;;;;;;;;;3522.50;3522.50;;;;;;;;6322079;22;8744;-80
2021/09/23 01:05:49;;;;;;;;;3559.33;3559.33;;;;;;;;6322337;22;8741;-82
2021/09/23 01:08:15;;;;;;;;;3544.25;3544.25;;;;;;;;6294219;22;8775;-82
2021/09/23 01:10:40;;;;;;;;;3527.75;3527.75;;;;;;;;6322048;22;8842;-82
2021/09/23 01:13:06;;;;;;;;;3535.75;3535.75;;;;;;;;6321734;22;8741;-81
2021/09/23 01:15:31;;;;;;;;;3529.75;3529.75;;;;;;;;6322154;22;8779;-81
2021/09/23 01:17:56;;;;;;;;;3522.50;3522.50;;;;;;;;6322120;22;8740;-81
2021/09/23 01:20:22;;;;;;;;;3568.75;3568.75;;;;;;;;6322131;22;8772;-81
2021/09/23 01:22:48;;;;;;;;;3574.75;3574.75;;;;;;;;6321935;22;8811;-80
2021/09/23 01:25:15;;;;;;;;;3546.20;3546.20;;;;;;;;6322308;22;8736;-80
2021/09/23 01:27:40;;;;;;;;;3541.80;3541.80;;;;;;;;6321904;22;8689;-81
2021/09/23 01:30:06;;;;;;;;;3522.50;3522.50;;;;;;;;6321817;22;8764;-81
2021/09/23 01:32:31;;;;;;;;;3529.00;3529.00;;;;;;;;6321998;22;8761;-81
2021/09/23 01:34:57;;;;;;;;;3552.00;3552.00;;;;;;;;6322298;22;8733;-81
2021/09/23 01:37:22;;;;;;;;;119.67;110.33;;;;;;;;6322248;22;8845;-81
2021/09/23 01:39:47;;;;;;;;;119.00;109.33;;;;;;;;6294043;22;9496;-81
2021/09/23 01:42:13;;;;;;;;;118.00;110.25;;;;;;;;6322158;22;8763;-81
2021/09/23 01:44:38;;;;;;;;;115.00;105.00;;;;;;;;6322318;22;8756;-81
2021/09/23 01:47:03;;;;;;;;;116.25;108.00;;;;;;;;6322460;22;8752;-81
2021/09/23 01:49:29;;;;;;;;;114.67;105.67;;;;;;;;6322460;22;8771;-81
2021/09/23 01:51:54;;;;;;;;;113.50;104.50;;;;;;;;6322178;22;8818;-81
2021/09/23 01:54:20;;;;;;;;;112.25;104.75;;;;;;;;6322400;22;8765;-81
2021/09/23 01:56:45;;;;;;;;;105.00;96.00;;;;;;;;6294229;22;9516;-81
2021/09/23 01:59:10;;;;;;;;;98.75;91.75;;;;;;;;6321951;22;8733;-81
2021/09/23 02:01:36;;;;;;;;;100.50;92.50;;;;;;;;6322107;22;8784;-81
2021/09/23 02:04:02;;;;;;;;;100.50;93.50;;;;;;;;6322837;22;8741;-81
2021/09/23 02:06:27;;;;;;;;;96.75;88.50;;;;;;;;6322263;22;8758;-81
2021/09/23 02:08:53;;;;;;;;;97.50;90.25;;;;;;;;6322494;22;8815;-81
2021/09/23 02:11:18;;;;;;;;;91.33;83.33;;;;;;;;6322164;22;8861;-81
2021/09/23 02:13:43;;;;;;;;;100.00;93.00;;;;;;;;6322239;22;9498;-81
2021/09/23 02:16:09;;;;;;;;;93.50;85.00;;;;;;;;6322370;22;8744;-81
2021/09/23 02:18:34;;;;;;;;;101.67;92.33;;;;;;;;6322384;22;8737;-81
2021/09/23 02:21:00;;;;;;;;;101.75;94.00;;;;;;;;6293875;22;9213;-82
2021/09/23 02:23:25;;;;;;;;;99.75;92.00;;;;;;;;6322656;22;8821;-83
2021/09/23 02:25:50;;;;;;;;;99.67;91.33;;;;;;;;6322254;22;8745;-82
2021/09/23 02:28:16;;;;;;;;;97.25;88.00;;;;;;;;6296161;22;12218;-80
2021/09/23 02:30:41;;;;;;;;;104.00;93.00;;;;;;;;6322264;22;8732;-81
2021/09/23 02:33:07;;;;;;;;;85.00;83.50;;;;;;;;6322043;22;11115;-81
2021/09/23 02:35:32;;;;;;;;;3546.75;3546.75;;;;;;;;6322122;22;8745;-80
2021/09/23 02:38:00;;;;;;;;;3541.50;3541.50;;;;;;;;6322360;22;8779;-81
2021/09/23 02:40:25;;;;;;;;;3555.80;3555.80;;;;;;;;6320083;22;8779;-80
2021/09/23 02:42:51;;;;;;;;;3597.75;3597.75;;;;;;;;6322319;22;8785;-80
2021/09/23 02:45:16;;;;;;;;;3603.00;3603.00;;;;;;;;6321983;22;8752;-85
2021/09/23 02:47:42;;;;;;;;;3554.00;3554.00;;;;;;;;6322317;22;8830;-81
2021/09/23 02:50:08;;;;;;;;;3557.40;3557.40;;;;;;;;6322269;22;8749;-81
2021/09/23 02:52:34;;;;;;;;;3559.00;3559.00;;;;;;;;6322124;22;8752;-81
2021/09/23 02:54:59;;;;;;;;;433.25;432.50;;;;;;;;6322356;22;8775;-83
2021/09/23 02:57:25;;;;;;;;;1648.75;1648.25;;;;;;;;6322359;22;9477;-82
2021/09/23 02:59:50;;;;;;;;;1996.25;1994.75;;;;;;;;6322049;22;8737;-82
2021/09/23 03:02:16;;;;;;;;;1304.00;1302.00;;;;;;;;6322205;22;8762;-81
2021/09/23 03:04:41;;;;;;;;;2340.75;2340.75;;;;;;;;6322064;22;8745;-81
2021/09/23 03:07:07;;;;;;;;;2352.25;2352.25;;;;;;;;6322278;22;8802;-81
2021/09/23 03:09:32;;;;;;;;;2691.50;2691.50;;;;;;;;6322356;22;8760;-81
2021/09/23 03:11:57;;;;;;;;;2994.67;2994.67;;;;;;;;6322192;22;8764;-81
2021/09/23 03:14:23;;;;;;;;;2700.75;2698.25;;;;;;;;6321825;22;8770;-81
2021/09/23 03:16:48;;;;;;;;;3562.00;3562.00;;;;;;;;6322197;22;8772;-81
2021/09/23 03:19:14;;;;;;;;;3308.25;3308.25;;;;;;;;6321917;22;8752;-81
2021/09/23 03:21:39;;;;;;;;;2951.00;2950.00;;;;;;;;6321812;22;8744;-81
2021/09/23 03:24:05;;;;;;;;;3554.00;3554.00;;;;;;;;6321723;22;8767;-82
2021/09/23 03:26:31;;;;;;;;;3582.40;3582.40;;;;;;;;6321720;22;8724;-82
2021/09/23 03:28:56;;;;;;;;;3554.00;3554.00;;;;;;;;6321022;22;8941;-81
2021/09/23 03:31:21;;;;;;;;;3605.67;3605.67;;;;;;;;6293618;22;9515;-81
2021/09/23 03:33:47;;;;;;;;;3548.75;3548.75;;;;;;;;6321731;22;8748;-81
2021/09/23 03:36:12;;;;;;;;;3554.00;3554.00;;;;;;;;6321573;22;8773;-82
2021/09/23 03:38:38;;;;;;;;;3613.67;3613.67;;;;;;;;6293688;22;8791;-82
2021/09/23 03:41:03;;;;;;;;;3605.67;3605.67;;;;;;;;6322108;22;8898;-82
2021/09/23 03:43:28;;;;;;;;;3554.00;3554.00;;;;;;;;6321972;22;8756;-81
2021/09/23 03:45:56;;;;;;;;;3556.00;3556.00;;;;;;;;6321730;22;8780;-82
2021/09/23 03:48:21;;;;;;;;;3569.00;3569.00;;;;;;;;6293393;22;8741;-81
2021/09/23 03:50:48;;;;;;;;;3577.00;3577.00;;;;;;;;6321201;22;10191;-81
2021/09/23 03:53:14;;;;;;;;;3573.25;3573.25;;;;;;;;6322145;22;8720;-81
2021/09/23 03:55:39;;;;;;;;;3564.00;3564.00;;;;;;;;6321914;22;8799;-81
2021/09/23 03:58:05;;;;;;;;;3571.25;3571.25;;;;;;;;6321653;22;8741;-81
2021/09/23 04:00:30;;;;;;;;;3573.25;3573.25;;;;;;;;6321257;22;8764;-81
2021/09/23 04:02:55;;;;;;;;;3564.00;3564.00;;;;;;;;6321557;22;8756;-81
2021/09/23 04:05:21;;;;;;;;;3558.00;3558.00;;;;;;;;6321608;22;8787;-81
2021/09/23 04:07:46;;;;;;;;;3558.00;3558.00;;;;;;;;6321737;22;8779;-81
2021/09/23 04:10:12;;;;;;;;;3567.25;3567.25;;;;;;;;6321653;22;8780;-81
2021/09/23 04:12:37;;;;;;;;;3566.00;3566.00;;;;;;;;6293008;22;8800;-81
2021/09/23 04:15:04;;;;;;;;;3580.50;3580.50;;;;;;;;6292380;22;8789;-81
2021/09/23 04:17:29;;;;;;;;;3577.00;3577.00;;;;;;;;6321243;22;8744;-81
2021/09/23 04:19:54;;;;;;;;;3562.00;3562.00;;;;;;;;6321576;22;8757;-81
2021/09/23 04:22:20;;;;;;;;;3558.00;3558.00;;;;;;;;6321396;22;8756;-81
2021/09/23 04:24:45;;;;;;;;;3575.25;3575.25;;;;;;;;6321058;22;8768;-81
2021/09/23 04:27:11;;;;;;;;;3558.00;3558.00;;;;;;;;6321529;22;8740;-81
2021/09/23 04:29:37;;;;;;;;;3582.50;3582.50;;;;;;;;6321077;22;8799;-81
2021/09/23 04:32:03;;;;;;;;;3579.60;3579.60;;;;;;;;6321243;22;8748;-81
2021/09/23 04:34:28;;;;;;;;;3564.00;3564.00;;;;;;;;6321448;22;8766;-81
2021/09/23 04:36:53;;;;;;;;;3564.00;3564.00;;;;;;;;6321243;22;8775;-81
2021/09/23 04:39:19;;;;;;;;;3567.25;3567.25;;;;;;;;6321281;22;8763;-81
2021/09/23 04:41:45;;;;;;;;;3565.25;3565.25;;;;;;;;6320819;22;8774;-81
2021/09/23 04:44:10;;;;;;;;;3564.00;3564.00;;;;;;;;6320277;22;8744;-81
2021/09/23 04:46:35;;;;;;;;;3569.25;3569.25;;;;;;;;6321119;22;8760;-81
2021/09/23 04:49:01;;;;;;;;;3562.00;3562.00;;;;;;;;6321222;22;8772;-81
2021/09/23 04:51:26;;;;;;;;;3558.00;3558.00;;;;;;;;6320983;22;8764;-81
2021/09/23 04:53:52;;;;;;;;;3567.25;3567.25;;;;;;;;6321189;22;8740;-81
2021/09/23 04:56:17;;;;;;;;;3567.25;3567.25;;;;;;;;6320692;22;8744;-81
2021/09/23 04:58:43;;;;;;;;;3573.25;3573.25;;;;;;;;6320604;22;8736;-81
2021/09/23 05:01:08;;;;;;;;;3560.00;3560.00;;;;;;;;6321047;22;8736;-81
2021/09/23 05:03:33;;;;;;;;;3566.00;3566.00;;;;;;;;6321239;22;8760;-81
2021/09/23 05:05:59;;;;;;;;;3582.50;3582.50;;;;;;;;6320984;22;8745;-81
2021/09/23 05:08:24;;;;;;;;;3566.00;3566.00;;;;;;;;6320906;22;8800;-81
2021/09/23 05:10:50;;;;;;;;;3573.25;3573.25;;;;;;;;6321384;22;8778;-81
2021/09/23 05:13:16;;;;;;;;;3615.00;3615.00;;;;;;;;6321105;22;8760;-81
2021/09/23 05:15:42;;;;;;;;;3566.00;3566.00;;;;;;;;6320845;22;8776;-81
2021/09/23 05:18:08;;;;;;;;;3575.40;3575.40;;;;;;;;6320878;22;8779;-81
2021/09/23 05:20:33;;;;;;;;;3573.25;3573.25;;;;;;;;6320813;22;8780;-81
2021/09/23 05:22:58;;;;;;;;;3584.50;3584.50;;;;;;;;6320775;22;8764;-82
2021/09/23 05:25:24;;;;;;;;;3588.50;3588.50;;;;;;;;6320917;22;8799;-82
2021/09/23 05:27:50;;;;;;;;;3580.50;3580.50;;;;;;;;6321358;22;8764;-82
2021/09/23 05:30:16;;;;;;;;;3590.20;3590.20;;;;;;;;6293585;22;8760;-81
2021/09/23 05:32:41;;;;;;;;;3592.50;3592.50;;;;;;;;6322026;22;8808;-81
2021/09/23 05:35:07;;;;;;;;;3586.50;3586.50;;;;;;;;6294190;22;8765;-81
2021/09/23 05:37:33;;;;;;;;;3587.20;3587.20;;;;;;;;6322455;22;8843;-82
2021/09/23 05:39:58;;;;;;;;;3582.50;3582.50;;;;;;;;6322490;22;8856;-82
2021/09/23 05:42:23;;;;;;;;;3586.50;3586.50;;;;;;;;6293842;22;8849;-82
2021/09/23 05:44:49;;;;;;;;;3599.75;3599.75;;;;;;;;6322100;22;8768;-83
2021/09/23 05:47:14;;;;;;;;;3599.75;3599.75;;;;;;;;6293989;22;8772;-84
2021/09/23 05:49:41;;;;;;;;;3592.50;3592.50;;;;;;;;6322423;22;8760;-81
2021/09/23 05:52:06;;;;;;;;;3591.80;3591.80;;;;;;;;6293527;22;8768;-82
2021/09/23 05:54:31;;;;;;;;;3599.75;3599.75;;;;;;;;6322237;22;8779;-81
2021/09/23 05:56:57;;;;;;;;;3599.75;3599.75;;;;;;;;6322042;22;8804;-81
2021/09/23 05:59:26;;;;;;;;;3582.50;3582.50;;;;;;;;6321578;22;8775;-85
2021/09/23 06:01:54;;;;;;;;;3595.20;3595.20;;;;;;;;6321496;22;8764;-82
2021/09/23 06:04:20;;;;;;;;;3605.60;3605.60;;;;;;;;6322314;22;8759;-87
2021/09/23 06:07:19;;;;;;;;;;;;;;;;;;;;;
2021/09/23 06:09:48;;;;;;;;;3623.00;3623.00;;;;;;;;6319710;22;36523;-83
2021/09/23 06:12:13;;;;;;;;;3586.00;3586.00;;;;;;;;6321664;22;8776;-85
2021/09/23 06:14:38;;;;;;;;;3577.25;3577.25;;;;;;;;6321413;22;8822;-87
2021/09/23 06:17:04;;;;;;;;;3623.00;3623.00;;;;;;;;6321745;22;9456;-88
2021/09/23 06:19:30;;;;;;;;;3623.00;3623.00;;;;;;;;6321679;22;8768;-86
2021/09/23 06:21:56;;;;;;;;;3577.25;3577.25;;;;;;;;6322097;22;8877;-87
2021/09/23 06:24:21;;;;;;;;;3613.67;3613.67;;;;;;;;6321991;22;8827;-87
2021/09/23 06:26:47;;;;;;;;;3609.75;3609.75;;;;;;;;6321626;22;8760;-86
2021/09/23 06:29:13;;;;;;;;;3623.00;3623.00;;;;;;;;6307651;22;8872;-87
2021/09/23 06:31:38;;;;;;;;;3564.00;3564.00;;;;;;;;6321781;22;8898;-86
2021/09/23 06:34:04;;;;;;;;;3609.75;3609.75;;;;;;;;6321804;22;8752;-86
2021/09/23 06:36:29;;;;;;;;;3582.50;3582.50;;;;;;;;6321813;22;8960;-86
2021/09/23 06:38:54;;;;;;;;;3571.25;3571.25;;;;;;;;6321430;22;8794;-87
2021/09/23 06:41:20;;;;;;;;;3578.50;3578.50;;;;;;;;6321800;22;8851;-86
2021/09/23 06:43:48;;;;;;;;;3575.25;3575.25;;;;;;;;6318874;22;8893;-86
2021/09/23 06:46:13;;;;;;;;;3584.40;3584.40;;;;;;;;6321698;22;8716;-86
2021/09/23 06:48:39;;;;;;;;;3578.50;3578.50;;;;;;;;6319585;22;8966;-86
2021/09/23 06:51:05;;;;;;;;;3576.50;3576.50;;;;;;;;6321921;22;8740;-86
2021/09/23 06:53:30;;;;;;;;;3569.25;3569.25;;;;;;;;6322088;22;8879;-84
2021/09/23 06:55:55;;;;;;;;;3578.50;3578.50;;;;;;;;6319181;22;8764;-88
2021/09/23 06:58:21;;;;;;;;;3571.25;3571.25;;;;;;;;6321732;22;8788;-88
2021/09/23 07:00:46;;;;;;;;;3576.50;3576.50;;;;;;;;6321447;22;8764;-88
2021/09/23 07:03:11;;;;;;;;;3565.25;3565.25;;;;;;;;6319500;22;8780;-88
2021/09/23 07:05:41;;;;;;;;;3574.50;3574.50;;;;;;;;6319202;22;8768;-88
2021/09/23 07:08:06;;;;;;;;;3573.20;3573.20;;;;;;;;6320372;22;9571;-85
2021/09/23 07:10:31;;;;;;;;;3563.25;3563.25;;;;;;;;6321392;22;8861;-86
2021/09/23 07:12:57;;;;;;;;;3560.00;3560.00;;;;;;;;6321750;22;8796;-85
2021/09/23 07:15:22;;;;;;;;;3552.00;3552.00;;;;;;;;6321299;22;8752;-85
2021/09/23 07:17:48;;;;;;;;;3563.25;3563.25;;;;;;;;6319497;22;8772;-86
2021/09/23 07:20:13;;;;;;;;;3558.00;3558.00;;;;;;;;6321465;22;8818;-85
2021/09/23 07:22:38;;;;;;;;;3552.00;3552.00;;;;;;;;6321751;22;8772;-85
2021/09/23 07:25:04;;;;;;;;;3552.00;3552.00;;;;;;;;6318998;22;8851;-86
2021/09/23 07:27:29;;;;;;;;;3550.00;3550.00;;;;;;;;6320908;22;8760;-86
2021/09/23 07:29:55;;;;;;;;;3563.25;3563.25;;;;;;;;6320974;22;8788;-86
2021/09/23 07:32:22;;;;;;;;;3550.00;3550.00;;;;;;;;6321308;22;8788;-86
2021/09/23 07:34:47;;;;;;;;;3557.00;3557.00;;;;;;;;6292967;22;8810;-85
2021/09/23 07:37:15;;;;;;;;;3546.75;3546.75;;;;;;;;6321524;22;8740;-86
2021/09/23 07:39:43;;;;;;;;;3567.00;3567.00;;;;;;;;6293063;22;8752;-84
2021/09/23 07:42:08;;;;;;;;;3551.80;3551.80;;;;;;;;6320262;22;8752;-83
2021/09/23 07:44:36;;;;;;;;;3539.50;3539.50;;;;;;;;6321207;22;8744;-84
2021/09/23 07:47:01;;;;;;;;;3546.40;3546.40;;;;;;;;6321305;22;8759;-84
2021/09/23 07:49:27;;;;;;;;;3541.00;3541.00;;;;;;;;6321284;22;8756;-83
2021/09/23 07:51:52;;;;;;;;;3541.00;3541.00;;;;;;;;6320208;22;8811;-83
2021/09/23 07:54:18;;;;;;;;;3535.75;3535.75;;;;;;;;6293313;22;9445;-83
2021/09/23 07:56:44;;;;;;;;;3548.00;3548.00;;;;;;;;6292943;22;8768;-83
2021/09/23 07:59:10;;;;;;;;;3539.00;3539.00;;;;;;;;6321032;22;8745;-83
2021/09/23 08:01:35;;;;;;;;;3541.00;3541.00;;;;;;;;6321552;22;8748;-83
2021/09/23 08:04:00;;;;;;;;;3533.75;3533.75;;;;;;;;6321456;22;8780;-84
2021/09/23 08:06:26;;;;;;;;;3533.75;3533.75;;;;;;;;6293207;22;8784;-83
2021/09/23 08:08:52;;;;;;;;;3539.00;3539.00;;;;;;;;6321448;22;8978;-83
2021/09/23 08:11:17;;;;;;;;;3533.75;3533.75;;;;;;;;6321133;22;8795;-83
2021/09/23 08:13:42;;;;;;;;;3535.75;3535.75;;;;;;;;6320970;22;8756;-84
2021/09/23 08:16:08;;;;;;;;;3527.75;3527.75;;;;;;;;6321280;22;8752;-83
2021/09/23 08:18:33;;;;;;;;;3522.50;3522.50;;;;;;;;6321229;22;8748;-84
2021/09/23 08:20:59;;;;;;;;;3533.75;3533.75;;;;;;;;6321231;22;8744;-84
2021/09/23 08:23:24;;;;;;;;;3527.75;3527.75;;;;;;;;6321398;22;8732;-84
2021/09/23 08:25:52;;;;;;;;;3539.00;3539.00;;;;;;;;6321119;22;8749;-84
2021/09/23 08:28:18;;;;;;;;;3537.40;3537.40;;;;;;;;6320310;22;8856;-84
2021/09/23 08:30:45;;;;;;;;;3528.00;3528.00;;;;;;;;6321276;22;9678;-84
2021/09/23 08:33:10;;;;;;;;;3523.80;3523.80;;;;;;;;6321198;22;8866;-83
2021/09/23 08:35:35;;;;;;;;;3524.00;3524.00;;;;;;;;6320982;22;8756;-84
2021/09/23 08:38:01;;;;;;;;;3518.75;3518.75;;;;;;;;6292492;22;8788;-84
2021/09/23 08:40:26;;;;;;;;;3527.75;3527.75;;;;;;;;6293003;22;8764;-84
2021/09/23 08:42:52;;;;;;;;;3518.75;3518.75;;;;;;;;6320659;22;8740;-84
2021/09/23 08:45:17;;;;;;;;;3520.50;3520.50;;;;;;;;6320591;22;8748;-85
2021/09/23 08:47:43;;;;;;;;;3518.75;3518.75;;;;;;;;6320970;22;8767;-84
2021/09/23 08:50:12;;;;;;;;;3524.00;3524.00;;;;;;;;6320929;22;8779;-84
2021/09/23 08:52:38;;;;;;;;;3519.20;3519.20;;;;;;;;6320837;22;8733;-84
2021/09/23 08:55:04;;;;;;;;;3513.40;3513.40;;;;;;;;6292697;22;8767;-84
2021/09/23 08:57:30;;;;;;;;;3511.50;3511.50;;;;;;;;6320759;22;8839;-84
2021/09/23 08:59:55;;;;;;;;;3508.60;3508.60;;;;;;;;6320618;22;12010;-84
2021/09/23 09:02:27;;;;;;;;;3509.50;3509.50;;;;;;;;6321526;22;8760;-84
2021/09/23 09:04:56;;;;;;;;;3514.75;3514.75;;;;;;;;6322713;22;8742;-84
2021/09/23 09:07:25;;;;;;;;;3503.00;3503.00;;;;;;;;6321973;22;8767;-83
2021/09/23 09:09:51;;;;;;;;;3508.60;3508.60;;;;;;;;6322199;22;8673;-83
2021/09/23 09:12:17;;;;;;;;;3500.20;3500.20;;;;;;;;6322023;22;9468;-83
2021/09/23 09:14:43;;;;;;;;;3496.50;3496.50;;;;;;;;6293540;22;8764;-83
2021/09/23 09:17:08;;;;;;;;;3524.80;3524.80;;;;;;;;6322150;22;8736;-83
2021/09/23 09:19:43;;;;;;;;;3533.50;3533.50;;;;;;;;6322197;22;9455;-83
2021/09/23 09:22:09;;;;;;;;;3514.40;3514.40;;;;;;;;6322010;22;8724;-83
2021/09/23 09:24:48;;;;;;;;;3511.00;3511.00;;;;;;;;6322774;22;8747;-83
2021/09/23 09:27:23;;;;;;;;;3481.40;3481.40;;;;;;;;6322165;22;8748;-83
2021/09/23 09:29:53;;;;;;;;;3475.80;3475.80;;;;;;;;6321595;22;8736;-83
2021/09/23 09:32:38;;;;;;;;;3479.80;3479.80;;;;;;;;6321896;22;8845;-83
2021/09/23 09:35:04;;;;;;;;;3508.80;3508.80;;;;;;;;6320140;22;9569;-83
2021/09/23 09:37:31;;;;;;;;;3511.50;3511.50;;;;;;;;6322046;22;8763;-83
2021/09/23 09:39:59;;;;;;;;;3507.40;3507.40;;;;;;;;6321931;22;8743;-85
2021/09/23 09:42:28;;;;;;;;;3491.40;3491.40;;;;;;;;6321663;22;8751;-83
2021/09/23 09:44:57;;;;;;;;;3496.00;3496.00;;;;;;;;6321575;22;8825;-83
2021/09/23 09:47:30;;;;;;;;;3466.25;3466.25;;;;;;;;6293562;22;8756;-84
2021/09/23 09:49:56;;;;;;;;;3481.20;3481.20;;;;;;;;6321880;22;8798;-83
2021/09/23 09:52:29;;;;;;;;;3483.50;3483.50;;;;;;;;6322085;22;8743;-83
2021/09/23 09:55:00;;;;;;;;;3479.80;3479.80;;;;;;;;6322146;22;8724;-81
2021/09/23 09:57:26;;;;;;;;;3499.00;3499.00;;;;;;;;6321372;22;8746;-83
2021/09/23 09:59:51;;;;;;;;;3492.80;3492.80;;;;;;;;6321745;22;8763;-83
2021/09/23 10:02:17;;;;;;;;;3488.60;3488.60;;;;;;;;6294179;22;8744;-82
2021/09/23 10:04:44;;;;;;;;;3482.60;3482.60;;;;;;;;6321991;22;8802;-83
2021/09/23 10:07:11;;;;;;;;;3488.60;3488.60;;;;;;;;6321807;22;9581;-83
2021/09/23 10:09:38;;;;;;;;;3478.40;3478.40;;;;;;;;6322079;22;8737;-83
2021/09/23 10:12:04;;;;;;;;;3473.00;3473.00;;;;;;;;6321616;22;8728;-82
2021/09/23 10:14:29;;;;;;;;;3478.25;3478.25;;;;;;;;6321243;22;8770;-82
2021/09/23 10:16:55;;;;;;;;;3461.75;3461.75;;;;;;;;6321970;22;8787;-82
2021/09/23 10:19:21;;;;;;;;;3478.25;3478.25;;;;;;;;6320722;22;8767;-82
2021/09/23 10:21:46;;;;;;;;;3460.00;3460.00;;;;;;;;6321903;22;8933;-83
2021/09/23 10:24:13;;;;;;;;;3473.00;3473.00;;;;;;;;6321708;22;8772;-83
2021/09/23 10:26:40;;;;;;;;;3452.75;3452.75;;;;;;;;6293377;22;8818;-82
2021/09/23 10:29:06;;;;;;;;;3449.20;3449.20;;;;;;;;6321228;22;8857;-83
2021/09/23 10:31:33;;;;;;;;;3447.80;3447.80;;;;;;;;6321663;22;8728;-83
2021/09/23 10:33:59;;;;;;;;;3449.20;3449.20;;;;;;;;6321480;22;8812;-82
2021/09/23 10:36:26;;;;;;;;;1265.75;1259.75;;;;;;;;6322223;22;8775;-85
2021/09/23 10:38:52;;;;;;;;;3435.25;3435.25;;;;;;;;6293655;22;8725;-82
2021/09/23 10:41:17;;;;;;;;;3437.67;3437.67;;;;;;;;6321990;22;8828;-82
2021/09/23 10:43:43;;;;;;;;;3423.00;3423.00;;;;;;;;6321068;22;9343;-83
2021/09/23 10:46:10;;;;;;;;;3430.00;3430.00;;;;;;;;6321724;22;8737;-82
2021/09/23 10:48:36;;;;;;;;;3421.20;3421.20;;;;;;;;6292942;22;8839;-82
2021/09/23 10:51:03;;;;;;;;;3429.60;3429.60;;;;;;;;6321519;22;8729;-82
2021/09/23 10:53:30;;;;;;;;;3428.20;3428.20;;;;;;;;6293630;22;8750;-82
2021/09/23 10:56:03;;;;;;;;;3425.40;3425.40;;;;;;;;6321449;22;8764;-84
2021/09/23 10:58:29;;;;;;;;;3414.20;3414.20;;;;;;;;6321100;22;8806;-83
2021/09/23 11:00:56;;;;;;;;;3422.60;3422.60;;;;;;;;6322240;22;8763;-85
2021/09/23 11:03:30;;;;;;;;;3417.00;3417.00;;;;;;;;6293068;22;8728;-81
2021/09/23 11:05:56;;;;;;;;;3409.20;3409.20;;;;;;;;6321883;22;8763;-81
2021/09/23 11:08:21;;;;;;;;;3395.75;3395.75;;;;;;;;6293574;22;8744;-80
2021/09/23 11:10:46;;;;;;;;;3395.75;3395.75;;;;;;;;6321978;22;8760;-81
2021/09/23 11:13:13;;;;;;;;;3397.50;3397.50;;;;;;;;6320437;22;8768;-81
2021/09/23 11:15:40;;;;;;;;;3399.20;3399.20;;;;;;;;6293669;22;8732;-80
2021/09/23 11:18:07;;;;;;;;;3407.80;3407.80;;;;;;;;6321729;22;8724;-80
2021/09/23 11:20:32;;;;;;;;;3409.20;3409.20;;;;;;;;6321820;22;8741;-82
2021/09/23 11:23:02;;;;;;;;;3392.00;3392.00;;;;;;;;6321880;22;8712;-80
2021/09/23 11:25:29;;;;;;;;;3397.80;3397.80;;;;;;;;6321569;22;8728;-80
2021/09/23 11:27:55;;;;;;;;;3401.00;3401.00;;;;;;;;6321102;22;8752;-81
2021/09/23 11:30:23;;;;;;;;;3401.00;3401.00;;;;;;;;6321303;22;9653;-81
2021/09/23 11:32:50;;;;;;;;;3397.40;3397.40;;;;;;;;6320890;22;8692;-81
2021/09/23 11:35:16;;;;;;;;;3424.50;3424.50;;;;;;;;6321172;22;8733;-81
2021/09/23 11:37:42;;;;;;;;;3397.80;3397.80;;;;;;;;6321460;22;8829;-80
2021/09/23 11:40:08;;;;;;;;;3383.25;3383.25;;;;;;;;6321904;22;8760;-80
2021/09/23 11:42:35;;;;;;;;;3384.40;3384.40;;;;;;;;6321384;22;8720;-80
2021/09/23 11:45:17;;;;;;;;;3419.60;3419.60;;;;;;;;6321137;22;8716;-81
2021/09/23 11:47:44;;;;;;;;;3401.00;3401.00;;;;;;;;6293409;22;8732;-81
2021/09/23 11:50:10;;;;;;;;;3380.20;3380.20;;;;;;;;6321489;22;8732;-80
2021/09/23 11:52:36;;;;;;;;;3364.75;3364.75;;;;;;;;6321663;22;8764;-80
2021/09/23 11:55:02;;;;;;;;;3376.60;3376.60;;;;;;;;6293430;22;9495;-80
2021/09/23 11:57:28;;;;;;;;;3388.60;3388.60;;;;;;;;6321325;22;8825;-81
2021/09/23 11:59:54;;;;;;;;;3375.20;3375.20;;;;;;;;6321353;22;8729;-81
2021/09/23 12:02:20;;;;;;;;;3384.40;3384.40;;;;;;;;6321256;22;8780;-79
2021/09/23 12:04:52;;;;;;;;;3358.50;3358.50;;;;;;;;6321137;22;8866;-80
2021/09/23 12:07:18;;;;;;;;;3384.40;3384.40;;;;;;;;6321444;22;8716;-80
2021/09/23 12:09:59;;;;;;;;;3375.25;3375.25;;;;;;;;6320782;22;8748;-81
2021/09/23 12:12:25;;;;;;;;;3375.20;3375.20;;;;;;;;6321133;22;8724;-80
2021/09/23 12:14:51;;;;;;;;;3384.40;3384.40;;;;;;;;6321158;22;8831;-81
2021/09/23 12:17:17;;;;;;;;;3369.60;3369.60;;;;;;;;6321030;22;8752;-80
2021/09/23 12:19:50;;;;;;;;;3369.60;3369.60;;;;;;;;6321644;22;8776;-80
2021/09/23 12:22:25;;;;;;;;;3368.20;3368.20;;;;;;;;6320499;22;8762;-80
2021/09/23 12:24:51;;;;;;;;;3368.20;3368.20;;;;;;;;6319617;22;8779;-81
2021/09/23 12:27:16;;;;;;;;;3355.00;3355.00;;;;;;;;6320118;22;8859;-81
2021/09/23 12:29:42;;;;;;;;;3363.00;3363.00;;;;;;;;6320313;22;8788;-81
2021/09/23 12:32:08;;;;;;;;;3363.00;3363.00;;;;;;;;6320821;22;8796;-80
2021/09/23 12:34:41;;;;;;;;;3373.20;3373.20;;;;;;;;6292581;22;8744;-81
2021/09/23 12:37:07;;;;;;;;;3365.40;3365.40;;;;;;;;6321474;22;8783;-80
2021/09/23 12:39:38;;;;;;;;;3368.20;3368.20;;;;;;;;6322526;22;8739;-80
2021/09/23 12:42:05;;;;;;;;;3368.20;3368.20;;;;;;;;6321774;22;8721;-80
2021/09/23 12:44:32;;;;;;;;;3361.20;3361.20;;;;;;;;6321882;22;9615;-81
2021/09/23 12:47:04;;;;;;;;;3361.20;3361.20;;;;;;;;6294190;22;8703;-81
2021/09/23 12:49:30;;;;;;;;;3361.20;3361.20;;;;;;;;6293964;22;8717;-80
2021/09/23 12:51:55;;;;;;;;;3346.25;3346.25;;;;;;;;6322417;22;8767;-81
2021/09/23 12:54:22;;;;;;;;;3341.00;3341.00;;;;;;;;6322477;22;8760;-80
2021/09/23 12:56:48;;;;;;;;;3362.60;3362.60;;;;;;;;6293954;22;8770;-80
2021/09/23 12:59:17;;;;;;;;;3351.40;3351.40;;;;;;;;6321888;22;8728;-80
2021/09/23 13:01:42;;;;;;;;;3362.60;3362.60;;;;;;;;6322144;22;8723;-80
2021/09/23 13:04:18;;;;;;;;;3353.25;3353.25;;;;;;;;6322261;22;8748;-80
2021/09/23 13:06:44;;;;;;;;;3364.80;3364.80;;;;;;;;6322282;22;9638;-80
2021/09/23 13:09:10;;;;;;;;;3355.60;3355.60;;;;;;;;6322188;22;8771;-80
2021/09/23 13:11:35;;;;;;;;;3353.25;3353.25;;;;;;;;6322374;22;8768;-80
2021/09/23 13:14:19;;;;;;;;;3351.50;3351.50;;;;;;;;6322073;22;8799;-81
2021/09/23 13:16:44;;;;;;;;;3359.80;3359.80;;;;;;;;6322246;22;9563;-80
2021/09/23 13:19:10;;;;;;;;;3323.25;3323.25;;;;;;;;6322073;22;8767;-81
2021/09/23 13:21:37;;;;;;;;;3338.25;3338.25;;;;;;;;6321698;22;8836;-80
2021/09/23 13:24:02;;;;;;;;;3350.60;3350.60;;;;;;;;6322437;22;8665;-80
2021/09/23 13:26:29;;;;;;;;;3327.75;3327.75;;;;;;;;6322161;22;8901;-81
2021/09/23 13:28:58;;;;;;;;;3340.80;3340.80;;;;;;;;6321100;22;8796;-81
2021/09/23 13:31:23;;;;;;;;;3337.20;3337.20;;;;;;;;6321775;22;8783;-81
2021/09/23 13:33:49;;;;;;;;;3316.25;3316.25;;;;;;;;6293969;22;8732;-81
2021/09/23 13:36:16;;;;;;;;;3316.25;3316.25;;;;;;;;6322009;22;8763;-80
2021/09/23 13:38:41;;;;;;;;;3359.60;3359.60;;;;;;;;6293613;22;8725;-81
2021/09/23 13:41:08;;;;;;;;;3329.50;3329.50;;;;;;;;6293355;22;8822;-81